Tribhuvan International Airport
VNKT : now visible

Airfield :











YOU CAN JOIN US ON...

 
LOGIN :

Register | Disclaimer

   EN    FR    IT 

 









Legend :    VFR   Marginal VFR   IFR   Intensive IFR   Very Intensive IFR
Visi :
Ceiling :
>= 8 km
>= 3000ft
5 to 8 km
1000 to 3000 ft
1500m to 5 km
500 to 1000 ft
800 to 1500m
200 to 500 ft
< 800m
< 200 ft
Symbols :   Thunderstorms  Fog  Heavy snow  Heavy precipitations  Wind > 20 kt






- Airport Elevation : 4390 ft
- IATA code : KTM


VNKT - Tribhuvan International

CURRENT METAR :
  • 151020Z 29007KT 8000 FEW015 SCT030 BKN100 14/09 Q1020 NOSIG

EXPIRED METARs :
  • 150950Z 27007KT 240V310 8000 FEW015 SCT030 BKN100 14/09 Q1020 NOSIG
  • 150920Z 28008KT 8000 FEW015 SCT030 BKN100 15/09 Q1020 NOSIG
  • 150850Z 28007KT 240V320 8000 FEW015 SCT030 BKN100 15/08 Q1021 NOSIG
  • 150820Z 28006KT 7000 FEW015 SCT030 BKN100 15/08 Q1021 NOSIG
  • 150750Z 28004KT 7000 FEW015 SCT030 BKN100 15/07 Q1021 NOSIG

TAF TAF VNKT
Valid from the 15 at 06:00 until the 16 at 06:00 UTC


150500Z 1506/1606 15003KT 5000 BR FEW015 SCT030 BKN100
BECMG 1507/1508 23008KT 7000 FEW020 SCT030 BKN100
BECMG 1514/1515 18003KT 6000 FEW015
BECMG 1600/1602 VRB02KT 3000 BR FEW010 SCT025
PROB40 1601/1603 2000 BR
BECMG 1604/1605 09006KT 6000 FEW015



MET'MAP, your aeronautical weather chart ! - Copyright ORBIFLY December 2007 - Disclaimer

ORBIFLY MET'MAP TEAM :

Programming & Development : Alexandra Zaïnal
Concept & original design : Baudouin d'Aumeries
Assistance for programming : Marc-Olivier Méhu
Technical & hardware support : Manuel Goepfert

Contact : metmap@orbifly.com




SOURCES & CREDITS :

   NOAA       Earth
Advisory